createdAt,value
2022-11-19T00:03:49.892Z,6.43
2022-11-19T00:06:21.809Z,8.07
2022-11-19T00:08:48.420Z,7.10
2022-11-19T00:11:37.500Z,6.40
2022-11-19T00:14:04.838Z,5.05
2022-11-19T00:16:31.346Z,5.97
2022-11-19T00:18:57.857Z,7.47
2022-11-19T00:21:24.388Z,9.13
2022-11-19T00:23:54.017Z,6.93
2022-11-19T00:26:20.530Z,8.73
2022-11-19T00:28:46.950Z,8.05
2022-11-19T00:31:15.383Z,6.72
2022-11-19T00:33:45.131Z,5.65
2022-11-19T00:36:13.942Z,7.40
2022-11-19T00:38:40.873Z,8.43
2022-11-19T00:41:08.097Z,8.55
2022-11-19T00:43:50.351Z,5.00
2022-11-19T00:46:25.155Z,7.43
2022-11-19T00:48:54.250Z,7.10
2022-11-19T00:51:22.193Z,5.70
2022-11-19T00:53:48.853Z,6.38
2022-11-19T00:56:17.952Z,6.03
2022-11-19T00:58:45.098Z,6.38
2022-11-19T01:01:12.975Z,7.13
2022-11-19T01:03:40.678Z,6.43
2022-11-19T01:06:08.626Z,7.22
2022-11-19T01:08:35.553Z,6.63
2022-11-19T01:11:07.961Z,5.10
2022-11-19T01:13:34.591Z,5.88
2022-11-19T01:16:02.909Z,5.97
2022-11-19T01:18:29.412Z,6.20
2022-11-19T01:20:55.846Z,5.88
2022-11-19T01:23:22.398Z,6.30
2022-11-19T01:25:48.870Z,7.82
2022-11-19T01:28:15.432Z,6.35
2022-11-19T01:30:42.963Z,6.13
2022-11-19T01:33:09.718Z,6.78
2022-11-19T01:35:37.239Z,6.75
2022-11-19T01:38:04.742Z,5.70
2022-11-19T01:40:31.961Z,6.43
2022-11-19T01:42:58.546Z,5.53
2022-11-19T01:45:24.981Z,5.65
2022-11-19T01:47:53.787Z,6.15
2022-11-19T01:50:21.388Z,5.63
2022-11-19T01:52:48.610Z,7.63
2022-11-19T01:55:18.737Z,6.63
2022-11-19T01:57:45.647Z,8.57
2022-11-19T02:00:12.776Z,8.07
2022-11-19T02:02:39.190Z,7.80
2022-11-19T02:05:06.065Z,8.82
2022-11-19T02:07:34.018Z,8.07
2022-11-19T02:10:04.355Z,8.98
2022-11-19T02:12:46.095Z,8.55
2022-11-19T02:15:18.382Z,8.20
2022-11-19T02:18:09.248Z,8.93
2022-11-19T02:21:01.364Z,8.32
2022-11-19T02:23:49.699Z,9.85
2022-11-19T02:26:28.280Z,8.45
2022-11-19T02:29:15.096Z,8.07
2022-11-19T02:31:56.171Z,7.65
2022-11-19T02:34:31.073Z,7.15
2022-11-19T02:37:20.853Z,8.82
2022-11-19T02:39:53.059Z,8.05
2022-11-19T02:42:22.231Z,7.88
2022-11-19T02:45:02.569Z,8.60
2022-11-19T02:47:40.549Z,8.75
2022-11-19T02:50:20.698Z,9.20
2022-11-19T02:52:48.314Z,8.80
2022-11-19T02:55:17.529Z,10.32
2022-11-19T02:57:51.364Z,12.88
2022-11-19T03:00:36.793Z,10.23
2022-11-19T03:03:32.979Z,9.85
2022-11-19T03:06:04.231Z,12.23
2022-11-19T03:08:30.760Z,12.05
2022-11-19T03:11:11.433Z,11.23
2022-11-19T03:14:05.720Z,12.38
2022-11-19T03:16:42.439Z,11.45
2022-11-19T03:19:33.075Z,14.02
2022-11-19T03:22:07.407Z,13.25
2022-11-19T03:24:41.732Z,11.32
2022-11-19T03:27:13.852Z,13.55
2022-11-19T03:29:51.674Z,15.63
2022-11-19T03:32:23.818Z,15.30
2022-11-19T03:34:56.229Z,11.45
2022-11-19T03:37:25.261Z,16.40
2022-11-19T03:39:53.845Z,16.23
2022-11-19T03:42:22.515Z,16.77
2022-11-19T03:44:57.110Z,14.57
2022-11-19T03:47:29.449Z,15.57
2022-11-19T03:50:13.847Z,18.13
2022-11-19T03:52:40.378Z,17.48
2022-11-19T03:55:07.195Z,16.92
2022-11-19T03:57:34.332Z,15.82
2022-11-19T04:00:00.766Z,18.88
2022-11-19T04:02:27.172Z,15.02
2022-11-19T04:04:53.568Z,15.90
2022-11-19T04:07:22.110Z,15.10
2022-11-19T04:09:49.080Z,14.55
2022-11-19T04:12:19.277Z,13.15
2022-11-19T04:14:46.670Z,18.75
2022-11-19T04:17:13.591Z,18.27
2022-11-19T04:19:40.083Z,14.48
2022-11-19T04:22:06.487Z,20.45
2022-11-19T04:24:32.952Z,15.93
2022-11-19T04:26:59.342Z,14.82
2022-11-19T04:29:25.775Z,15.73
2022-11-19T04:31:52.197Z,15.55
2022-11-19T04:34:18.675Z,19.63
2022-11-19T04:36:45.748Z,18.65
2022-11-19T04:39:12.643Z,16.55
2022-11-19T04:41:39.831Z,17.00
2022-11-19T04:44:06.781Z,19.95
2022-11-19T04:46:33.305Z,17.13
2022-11-19T04:48:59.778Z,17.27
2022-11-19T04:51:26.145Z,16.13
2022-11-19T04:53:53.926Z,14.77
2022-11-19T04:56:20.313Z,18.67
2022-11-19T04:58:46.763Z,19.85
2022-11-19T05:01:13.162Z,20.90
2022-11-19T05:03:39.568Z,19.65
2022-11-19T05:06:06.247Z,20.15
2022-11-19T05:08:32.649Z,21.02
2022-11-19T05:10:59.072Z,16.83
2022-11-19T05:13:25.489Z,22.13
2022-11-19T05:15:51.897Z,21.52
2022-11-19T05:18:18.376Z,24.48
2022-11-19T05:20:44.766Z,19.50
2022-11-19T05:23:11.304Z,19.15
2022-11-19T05:25:37.696Z,22.10
2022-11-19T05:28:04.250Z,17.63
2022-11-19T05:30:30.761Z,20.38
2022-11-19T05:32:57.263Z,13.18
2022-11-19T05:35:24.164Z,18.50
2022-11-19T05:37:50.883Z,19.73
2022-11-19T05:40:18.112Z,19.83
2022-11-19T05:42:44.507Z,20.48
2022-11-19T05:45:11.324Z,19.50
2022-11-19T05:47:37.740Z,19.27
2022-11-19T05:50:05.288Z,11.52
2022-11-19T05:52:32.362Z,17.55
2022-11-19T05:54:58.777Z,22.75
2022-11-19T05:57:25.223Z,13.75
2022-11-19T05:59:51.721Z,16.20
2022-11-19T06:02:18.148Z,22.67
2022-11-19T06:04:44.679Z,18.95
2022-11-19T06:07:11.196Z,20.10
2022-11-19T06:09:37.610Z,17.95
2022-11-19T06:12:04.273Z,20.17
2022-11-19T06:14:30.669Z,20.73
2022-11-19T06:16:59.215Z,22.65
2022-11-19T06:19:26.440Z,20.17
2022-11-19T06:21:53.389Z,17.15
2022-11-19T06:24:20.820Z,20.80
2022-11-19T06:26:47.292Z,17.40
2022-11-19T06:29:15.177Z,17.85
2022-11-19T06:31:41.858Z,18.45
2022-11-19T06:34:08.609Z,15.10
2022-11-19T06:36:40.431Z,19.65
2022-11-19T06:39:08.917Z,19.63
2022-11-19T06:41:35.682Z,21.00
2022-11-19T06:44:02.501Z,16.73
2022-11-19T06:46:29.146Z,22.33
2022-11-19T06:48:55.553Z,24.98
2022-11-19T06:51:22.078Z,17.17
2022-11-19T06:53:48.486Z,16.15
2022-11-19T06:56:14.968Z,17.85
2022-11-19T06:58:41.466Z,18.90
2022-11-19T07:01:07.944Z,22.50
2022-11-19T07:03:35.604Z,16.67
2022-11-19T07:06:04.301Z,18.85
2022-11-19T07:08:34.416Z,18.17
2022-11-19T07:11:01.802Z,25.75
2022-11-19T07:13:50.743Z,19.05
2022-11-19T07:16:17.151Z,25.60
2022-11-19T07:18:43.564Z,23.35
2022-11-19T07:21:09.969Z,21.50
2022-11-19T07:23:36.360Z,23.55
2022-11-19T07:26:02.789Z,22.92
2022-11-19T07:28:29.268Z,26.02
2022-11-19T07:30:56.023Z,24.63
2022-11-19T07:33:22.445Z,18.73
2022-11-19T07:35:48.880Z,15.70
2022-11-19T07:38:15.299Z,20.15
2022-11-19T07:40:41.789Z,23.17
2022-11-19T07:43:13.117Z,22.35
2022-11-19T07:45:39.534Z,22.02
2022-11-19T07:48:05.934Z,18.08
2022-11-19T07:50:32.356Z,19.73
2022-11-19T07:52:59.561Z,21.25
2022-11-19T07:55:26.006Z,22.58
2022-11-19T07:57:55.551Z,22.77
2022-11-19T08:00:22.133Z,19.60
2022-11-19T08:02:49.991Z,22.23
2022-11-19T08:05:16.919Z,19.52
2022-11-19T08:07:43.795Z,18.77
2022-11-19T08:10:10.977Z,21.20
2022-11-19T08:12:37.402Z,18.00
2022-11-19T08:15:04.127Z,19.55
2022-11-19T08:17:49.101Z,22.77
2022-11-19T08:20:18.642Z,19.90
2022-11-19T08:22:45.034Z,21.35
2022-11-19T08:25:11.457Z,13.80
2022-11-19T08:27:37.848Z,15.25
2022-11-19T08:30:04.580Z,15.90
2022-11-19T08:32:31.022Z,20.17
2022-11-19T08:34:57.467Z,17.33
2022-11-19T08:37:23.884Z,19.02
2022-11-19T08:39:50.267Z,17.75
2022-11-19T08:42:35.299Z,15.43
2022-11-19T08:45:01.761Z,20.63
2022-11-19T08:47:28.211Z,14.98
2022-11-19T08:49:54.634Z,17.00
2022-11-19T08:52:21.061Z,17.60
2022-11-19T08:54:47.492Z,18.17
2022-11-19T08:57:13.906Z,17.92
2022-11-19T08:59:40.343Z,16.23
2022-11-19T09:02:06.781Z,22.15
2022-11-19T09:04:33.296Z,20.80
2022-11-19T09:06:59.791Z,18.33
2022-11-19T09:09:26.276Z,19.27
2022-11-19T09:11:52.734Z,17.63
2022-11-19T09:14:19.472Z,20.10
2022-11-19T09:16:46.313Z,20.08
2022-11-19T09:19:12.756Z,18.38
2022-11-19T09:21:39.170Z,19.30
2022-11-19T09:24:05.938Z,18.58
2022-11-19T09:26:32.608Z,19.65
2022-11-19T09:28:59.145Z,16.17
2022-11-19T09:31:25.626Z,18.25
2022-11-19T09:33:52.638Z,19.02
2022-11-19T09:36:20.313Z,17.05
2022-11-19T09:38:47.702Z,20.73
2022-11-19T09:41:36.869Z,19.05
2022-11-19T09:44:12.789Z,16.70
2022-11-19T09:47:01.109Z,24.08
2022-11-19T09:49:39.446Z,20.70
2022-11-19T09:52:13.364Z,19.17
2022-11-19T09:54:46.482Z,20.20
2022-11-19T09:57:18.551Z,17.90
2022-11-19T09:59:44.997Z,17.58
2022-11-19T10:02:20.338Z,17.08
2022-11-19T10:04:49.428Z,18.70
2022-11-19T10:07:43.786Z,15.40
2022-11-19T10:10:33.942Z,17.63
2022-11-19T10:13:23.729Z,19.02
2022-11-19T10:16:08.544Z,18.95
2022-11-19T10:18:43.749Z,17.58
2022-11-19T10:21:34.011Z,19.38
2022-11-19T10:24:03.107Z,18.83
2022-11-19T10:26:35.975Z,19.08
2022-11-19T10:29:10.966Z,18.27
2022-11-19T10:31:43.675Z,14.98
2022-11-19T10:34:31.068Z,17.10
2022-11-19T10:37:14.068Z,19.15
2022-11-19T10:40:00.132Z,20.48
2022-11-19T10:42:32.813Z,18.98
2022-11-19T10:45:15.864Z,19.13
2022-11-19T10:48:43.909Z,18.25
2022-11-19T10:51:18.066Z,18.52
2022-11-19T10:53:45.931Z,20.25
2022-11-19T10:56:22.517Z,16.42
2022-11-19T10:58:57.975Z,17.17
2022-11-19T11:01:33.264Z,16.55
2022-11-19T11:04:20.728Z,15.98
2022-11-19T11:06:53.585Z,14.35
2022-11-19T11:09:33.696Z,14.32
2022-11-19T11:12:47.487Z,12.73
2022-11-19T11:15:15.826Z,13.35
2022-11-19T11:17:44.652Z,16.10
2022-11-19T11:20:13.863Z,17.63
2022-11-19T11:22:40.539Z,16.27
2022-11-19T11:25:28.447Z,17.27
2022-11-19T11:30:32.781Z,17.70
2022-11-19T11:33:25.868Z,18.90
2022-11-19T11:35:55.873Z,16.77
2022-11-19T11:38:27.330Z,17.98
2022-11-19T11:44:01.729Z,16.25
2022-11-19T11:46:47.809Z,15.50
2022-11-19T11:49:31.549Z,15.57
2022-11-19T11:52:06.951Z,18.60
2022-11-19T11:54:33.509Z,16.75
2022-11-19T11:57:29.165Z,13.57
2022-11-19T11:59:56.603Z,16.42
2022-11-19T12:02:32.522Z,14.68
2022-11-19T12:05:10.767Z,16.67
2022-11-19T12:07:53.723Z,21.73
2022-11-19T12:10:49.699Z,15.05
2022-11-19T12:13:37.555Z,17.85
2022-11-19T12:18:43.601Z,15.05
2022-11-19T12:21:12.339Z,14.35
2022-11-19T12:24:03.372Z,16.73
2022-11-19T12:26:40.101Z,14.55
2022-11-19T12:29:22.903Z,14.35
2022-11-19T12:32:02.800Z,14.90
2022-11-19T12:35:12.144Z,13.57
2022-11-19T12:37:51.225Z,14.15
2022-11-19T12:40:38.369Z,14.60
2022-11-19T12:43:39.822Z,13.90
2022-11-19T12:46:21.474Z,13.30
2022-11-19T12:51:38.400Z,13.90
2022-11-19T12:54:28.923Z,12.43
2022-11-19T12:57:17.194Z,13.55
2022-11-19T13:00:05.995Z,10.45
2022-11-19T13:02:42.373Z,12.60
2022-11-19T13:05:38.774Z,10.95
2022-11-19T13:08:10.482Z,13.82
2022-11-19T13:10:42.768Z,14.50
2022-11-19T13:13:15.952Z,13.30
2022-11-19T13:16:07.012Z,14.50
2022-11-19T13:18:36.791Z,12.15
2022-11-19T13:21:16.227Z,14.27
2022-11-19T13:23:45.592Z,13.20
2022-11-19T13:28:50.936Z,14.20
2022-11-19T13:31:39.032Z,12.23
2022-11-19T13:34:18.077Z,11.98
2022-11-19T13:37:22.341Z,13.45
2022-11-19T13:39:55.909Z,10.77
2022-11-19T13:42:42.590Z,11.80
2022-11-19T13:45:16.558Z,12.57
2022-11-19T13:48:01.444Z,12.85
2022-11-19T13:50:43.022Z,11.55
2022-11-19T13:53:20.278Z,16.48
2022-11-19T13:55:47.804Z,15.85
2022-11-19T13:58:14.176Z,11.15
2022-11-19T14:00:51.363Z,14.18
2022-11-19T14:03:52.804Z,12.52
2022-11-19T14:06:33.577Z,13.27
2022-11-19T14:09:00.136Z,12.75
2022-11-19T14:11:29.297Z,11.80
2022-11-19T14:14:56.888Z,14.00
2022-11-19T14:17:54.338Z,12.93
2022-11-19T14:20:50.770Z,13.60
2022-11-19T14:24:03.803Z,10.98
2022-11-19T14:26:42.379Z,11.93
2022-11-19T14:29:18.360Z,12.32
2022-11-19T14:32:00.347Z,12.93
2022-11-19T14:34:29.209Z,11.65
2022-11-19T14:36:58.621Z,12.25
2022-11-19T14:42:19.790Z,11.52
2022-11-19T14:45:06.257Z,12.43
2022-11-19T14:47:34.671Z,12.88
2022-11-19T14:50:04.017Z,13.05
2022-11-19T14:55:28.535Z,10.02
2022-11-19T14:58:02.049Z,15.05
2022-11-19T15:00:33.512Z,12.35
2022-11-19T15:03:02.467Z,11.13
2022-11-19T15:05:33.459Z,13.90
2022-11-19T15:08:18.167Z,13.55
2022-11-19T15:11:12.256Z,13.35
2022-11-19T15:13:42.754Z,12.45
2022-11-19T15:16:12.117Z,11.60
2022-11-19T15:21:33.976Z,8.90
2022-11-19T15:24:18.646Z,13.77
2022-11-19T15:26:48.226Z,15.85
2022-11-19T15:29:30.411Z,12.63
2022-11-19T15:32:12.331Z,14.48
2022-11-19T15:35:17.551Z,6.97
2022-11-19T15:37:46.873Z,13.98
2022-11-19T15:40:19.428Z,13.80
2022-11-19T15:43:23.937Z,12.98
2022-11-19T15:45:56.859Z,10.88
2022-11-19T15:48:38.204Z,9.70
2022-11-19T15:51:07.633Z,10.30
2022-11-19T15:56:05.986Z,12.50
2022-11-19T15:58:41.302Z,9.57
2022-11-19T16:01:09.791Z,7.95
2022-11-19T16:03:39.891Z,12.90
2022-11-19T16:06:20.252Z,12.55
2022-11-19T16:09:00.181Z,16.35
2022-11-19T16:11:51.102Z,18.10
2022-11-19T16:14:46.401Z,17.88
2022-11-19T16:17:39.760Z,16.15
2022-11-19T16:20:09.761Z,18.83
2022-11-19T16:22:41.308Z,14.48
2022-11-19T16:25:13.761Z,16.40
2022-11-19T16:27:44.865Z,17.15
2022-11-19T16:30:23.485Z,13.27
2022-11-19T16:32:50.730Z,15.70
2022-11-19T16:35:24.644Z,17.55
2022-11-19T16:37:53.295Z,16.02
2022-11-19T16:40:21.285Z,15.30
2022-11-19T16:42:51.962Z,13.80
2022-11-19T16:45:26.515Z,14.27
2022-11-19T16:48:02.251Z,14.77
2022-11-19T16:50:42.286Z,13.80
2022-11-19T16:53:11.897Z,12.70
2022-11-19T16:55:40.515Z,13.60
2022-11-19T16:58:09.672Z,12.25
2022-11-19T17:00:37.359Z,10.65
2022-11-19T17:03:23.492Z,13.40
2022-11-19T17:05:52.675Z,11.82
2022-11-19T17:08:30.374Z,11.82
2022-11-19T17:11:38.778Z,13.15
2022-11-19T17:14:40.480Z,13.13
2022-11-19T17:17:23.584Z,11.38
2022-11-19T17:19:50.032Z,12.48
2022-11-19T17:22:21.464Z,13.30
2022-11-19T17:24:48.231Z,12.80
2022-11-19T17:27:35.093Z,11.52
2022-11-19T17:30:20.716Z,12.32
2022-11-19T17:32:51.987Z,12.63
2022-11-19T17:35:42.392Z,12.73
2022-11-19T17:38:14.490Z,13.75
2022-11-19T17:40:48.565Z,13.57
2022-11-19T17:43:36.686Z,13.68
2022-11-19T17:46:03.170Z,12.13
2022-11-19T17:48:29.709Z,12.25
2022-11-19T17:50:57.722Z,13.82
2022-11-19T17:53:24.377Z,11.73
2022-11-19T17:55:55.343Z,9.90
2022-11-19T17:58:21.797Z,13.10
2022-11-19T18:00:48.480Z,12.30
2022-11-19T18:03:16.063Z,11.02
2022-11-19T18:05:47.308Z,10.38
2022-11-19T18:08:15.176Z,13.63
2022-11-19T18:10:45.391Z,13.52
2022-11-19T18:13:14.547Z,12.15
2022-11-19T18:15:41.539Z,13.05
2022-11-19T18:18:07.985Z,13.00
2022-11-19T18:20:34.724Z,16.02
2022-11-19T18:23:01.237Z,11.98
2022-11-19T18:25:28.219Z,11.48
2022-11-19T18:27:54.842Z,13.25
2022-11-19T18:30:21.342Z,12.90
2022-11-19T18:32:47.956Z,12.38
2022-11-19T18:35:18.020Z,12.15
2022-11-19T18:37:45.165Z,11.82
2022-11-19T18:40:13.102Z,13.02
2022-11-19T18:42:59.781Z,12.60
2022-11-19T18:45:27.230Z,16.08
2022-11-19T18:47:53.751Z,13.43
2022-11-19T18:50:22.523Z,13.57
2022-11-19T18:52:50.918Z,12.52
2022-11-19T18:55:17.604Z,13.52
2022-11-19T18:57:44.076Z,12.40
2022-11-19T19:00:11.298Z,12.43
2022-11-19T19:02:38.401Z,15.32
2022-11-19T19:05:05.333Z,13.63
2022-11-19T19:07:31.930Z,14.10
2022-11-19T19:09:58.779Z,12.20
2022-11-19T19:12:25.331Z,14.05
2022-11-19T19:14:51.970Z,9.90
2022-11-19T19:17:18.734Z,13.20
2022-11-19T19:19:45.489Z,15.18
2022-11-19T19:22:12.236Z,14.98
2022-11-19T19:24:39.041Z,12.30
2022-11-19T19:27:05.716Z,15.50
2022-11-19T19:29:32.664Z,18.50
2022-11-19T19:31:59.451Z,15.88
2022-11-19T19:34:26.354Z,15.75
2022-11-19T19:36:53.844Z,13.25
2022-11-19T19:39:20.943Z,14.25
2022-11-19T19:41:49.187Z,15.32
2022-11-19T19:44:15.943Z,16.38
2022-11-19T19:46:42.580Z,15.75
2022-11-19T19:49:09.320Z,15.43
2022-11-19T19:51:36.122Z,16.70
2022-11-19T19:54:02.869Z,11.60
2022-11-19T19:56:31.335Z,13.60
2022-11-19T19:58:59.267Z,14.57
2022-11-19T20:01:31.259Z,13.52
2022-11-19T20:04:05.753Z,13.57
2022-11-19T20:06:33.412Z,15.30
2022-11-19T20:09:03.199Z,13.40
2022-11-19T20:11:33.513Z,15.25
2022-11-19T20:14:00.427Z,18.88
2022-11-19T20:16:29.390Z,14.27
2022-11-19T20:18:58.225Z,13.77
2022-11-19T20:21:27.375Z,15.98
2022-11-19T20:23:55.086Z,13.95
2022-11-19T20:26:27.977Z,14.90
2022-11-19T20:29:06.259Z,13.50
2022-11-19T20:31:34.330Z,17.20
2022-11-19T20:34:03.399Z,15.00
2022-11-19T20:36:33.694Z,14.35
2022-11-19T20:39:00.924Z,15.93
2022-11-19T20:41:46.699Z,16.98
2022-11-19T20:44:21.840Z,13.88
2022-11-19T20:47:00.048Z,16.13
2022-11-19T20:49:32.351Z,15.95
2022-11-19T20:51:59.312Z,17.20
2022-11-19T20:54:26.637Z,14.63
2022-11-19T20:56:54.723Z,17.83
2022-11-19T20:59:22.774Z,14.27
2022-11-19T21:01:50.639Z,18.55
2022-11-19T21:04:18.506Z,17.25
2022-11-19T21:06:45.143Z,17.92
2022-11-19T21:09:11.973Z,15.40
2022-11-19T21:11:38.667Z,17.05
2022-11-19T21:14:05.294Z,18.77
2022-11-19T21:16:32.903Z,17.60
2022-11-19T21:18:59.731Z,15.77
2022-11-19T21:21:26.652Z,15.93
2022-11-19T21:23:53.605Z,16.52
2022-11-19T21:26:22.703Z,17.38
2022-11-19T21:28:52.240Z,14.82
2022-11-19T21:33:46.741Z,14.52
2022-11-19T21:36:13.494Z,14.75
2022-11-19T21:38:40.495Z,12.82
2022-11-19T21:41:07.751Z,14.30
2022-11-19T21:43:35.812Z,15.80
2022-11-19T21:46:07.696Z,15.77
2022-11-19T21:48:36.966Z,14.90
2022-11-19T21:51:08.206Z,15.07
2022-11-19T21:53:35.560Z,16.88
2022-11-19T21:56:02.498Z,17.25
2022-11-19T21:58:28.940Z,16.02
2022-11-19T22:00:59.740Z,16.92
2022-11-19T22:03:28.379Z,15.25
2022-11-19T22:06:21.405Z,15.95
2022-11-19T22:08:47.863Z,16.65
2022-11-19T22:11:29.459Z,17.55
2022-11-19T22:14:01.846Z,15.93
2022-11-19T22:16:29.208Z,16.38
2022-11-19T22:18:55.834Z,14.93
2022-11-19T22:21:22.429Z,16.90
2022-11-19T22:23:49.058Z,17.17
2022-11-19T22:26:15.576Z,17.17
2022-11-19T22:28:42.299Z,17.65
2022-11-19T22:31:09.101Z,16.15
2022-11-19T22:33:38.441Z,15.48
2022-11-19T22:36:10.144Z,17.92
2022-11-19T22:38:38.311Z,17.10
2022-11-19T22:41:07.961Z,15.88
2022-11-19T22:43:36.048Z,14.93
2022-11-19T22:46:02.584Z,15.73
2022-11-19T22:48:30.608Z,18.80
2022-11-19T22:50:57.756Z,18.58
2022-11-19T22:53:24.586Z,17.23
2022-11-19T22:55:51.612Z,19.20
2022-11-19T22:58:18.075Z,19.35
2022-11-19T23:00:47.345Z,15.82
2022-11-19T23:03:15.159Z,15.13
2022-11-19T23:05:45.849Z,16.55
2022-11-19T23:08:12.488Z,15.68
2022-11-19T23:10:38.944Z,16.20
2022-11-19T23:13:23.858Z,19.85
2022-11-19T23:16:09.013Z,16.48
2022-11-19T23:18:38.714Z,15.48
2022-11-19T23:21:08.366Z,15.63
2022-11-19T23:23:35.605Z,15.80
2022-11-19T23:26:03.630Z,17.40
2022-11-19T23:28:32.374Z,17.13
2022-11-19T23:31:09.786Z,17.65
2022-11-19T23:33:36.540Z,16.92
2022-11-19T23:36:05.642Z,16.60
2022-11-19T23:38:32.543Z,14.18
2022-11-19T23:41:00.085Z,15.10
2022-11-19T23:43:28.155Z,17.27
2022-11-19T23:45:57.613Z,17.30
2022-11-19T23:48:24.028Z,18.88
2022-11-19T23:50:50.460Z,17.60
2022-11-19T23:53:16.967Z,20.50
2022-11-19T23:55:47.509Z,19.42
2022-11-19T23:58:14.103Z,16.60
